Time;durP1;ratioP1;P1;durP2;ratioP2;P2;SDS_P1;SDS_P2;PMS_P1;PMS_P2;Temp;Humidity;BMP_temperature;BMP_pressure;BME280_temperature;BME280_humidity;BME280_pressure;Samples;Min_cycle;Max_cycle;Signal;HPM_P1;HPM_P2
2023/05/10 00:00:32;;;;;;;4.53;3.13;;;12.90;99.90;;;;;;4983224;28;20057;-74
2023/05/10 00:02:58;;;;;;;3.90;2.88;;;12.90;99.90;;;;;;4981961;28;20477;-74
2023/05/10 00:05:23;;;;;;;3.40;2.55;;;12.90;99.90;;;;;;4981304;28;20050;-74
2023/05/10 00:07:49;;;;;;;3.92;2.33;;;12.90;99.90;;;;;;4984294;28;20501;-74
2023/05/10 00:10:15;;;;;;;4.07;2.70;;;12.80;99.90;;;;;;4985369;28;20294;-74
2023/05/10 00:12:40;;;;;;;5.15;3.30;;;12.80;99.90;;;;;;4985707;28;20034;-74
2023/05/10 00:15:07;;;;;;;6.32;3.50;;;12.80;99.90;;;;;;4984913;28;20042;-75
2023/05/10 00:17:32;;;;;;;3.85;2.30;;;12.80;99.90;;;;;;4985860;28;20398;-74
2023/05/10 00:19:58;;;;;;;3.00;2.20;;;12.80;99.90;;;;;;4985072;28;20046;-75
2023/05/10 00:22:23;;;;;;;2.83;1.80;;;12.70;99.90;;;;;;4984209;28;20050;-74
2023/05/10 00:24:49;;;;;;;1.75;1.65;;;12.70;99.90;;;;;;4983787;28;20046;-74
2023/05/10 00:27:15;;;;;;;2.00;1.75;;;12.70;99.90;;;;;;4985152;28;20046;-75
2023/05/10 00:29:40;;;;;;;1.85;1.50;;;12.70;99.90;;;;;;4985120;28;20073;-74
2023/05/10 00:32:06;;;;;;;2.50;1.52;;;12.70;99.90;;;;;;4985460;28;20088;-75
2023/05/10 00:34:32;;;;;;;1.40;1.17;;;12.70;99.90;;;;;;4984724;28;20512;-74
2023/05/10 00:36:57;;;;;;;2.33;1.60;;;12.60;99.90;;;;;;4984451;28;20048;-74
2023/05/10 00:39:23;;;;;;;2.58;1.65;;;12.70;99.90;;;;;;4985563;28;20054;-74
2023/05/10 00:41:48;;;;;;;3.15;1.90;;;12.70;99.90;;;;;;4984745;28;20042;-74
2023/05/10 00:44:14;;;;;;;2.05;1.73;;;12.60;99.90;;;;;;4985256;28;20046;-74
2023/05/10 00:46:40;;;;;;;3.15;2.17;;;12.60;99.90;;;;;;4984758;28;20044;-74
2023/05/10 00:49:06;;;;;;;3.28;2.00;;;12.70;99.90;;;;;;4985285;28;20161;-75
2023/05/10 00:51:33;;;;;;;4.22;2.40;;;12.60;99.90;;;;;;4983764;28;20456;-74
2023/05/10 00:53:59;;;;;;;5.90;3.08;;;12.60;99.90;;;;;;4969055;28;20046;-73
2023/05/10 00:56:25;;;;;;;4.10;2.50;;;12.60;99.90;;;;;;4983982;28;20046;-74
2023/05/10 00:58:51;;;;;;;7.28;3.97;;;12.60;99.90;;;;;;4967889;28;20039;-74
2023/05/10 01:01:17;;;;;;;7.28;3.42;;;12.50;99.90;;;;;;4985074;28;20445;-74
2023/05/10 01:03:43;;;;;;;10.23;4.40;;;12.60;99.90;;;;;;4985297;28;20038;-74
2023/05/10 01:06:09;;;;;;;6.40;3.75;;;12.60;99.90;;;;;;4983532;28;20051;-74
2023/05/10 01:08:36;;;;;;;10.32;4.60;;;12.60;99.90;;;;;;4984021;28;20046;-74
2023/05/10 01:11:02;;;;;;;9.15;4.72;;;12.60;99.90;;;;;;4984618;28;20042;-74
2023/05/10 01:13:34;;;;;;;11.30;5.35;;;12.50;99.90;;;;;;4984593;28;20050;-74
2023/05/10 01:16:02;;;;;;;11.73;5.20;;;12.50;99.90;;;;;;4984525;28;20046;-74
2023/05/10 01:18:40;;;;;;;8.40;3.75;;;12.50;99.90;;;;;;4984045;28;20137;-74
2023/05/10 01:21:21;;;;;;;8.65;3.83;;;12.50;99.90;;;;;;4982740;28;20054;-75
2023/05/10 01:24:05;;;;;;;9.50;4.15;;;12.50;99.90;;;;;;4983620;28;20053;-74
2023/05/10 01:26:59;;;;;;;11.63;6.00;;;12.50;99.90;;;;;;4984142;28;20049;-74
2023/05/10 01:29:38;;;;;;;7.53;5.55;;;12.50;99.90;;;;;;4983521;28;20038;-74
2023/05/10 01:32:40;;;;;;;8.88;4.65;;;12.40;99.90;;;;;;4983999;28;20049;-74
2023/05/10 01:35:07;;;;;;;11.20;5.75;;;12.50;99.90;;;;;;4950947;28;20063;-75
2023/05/10 01:37:41;;;;;;;12.30;6.22;;;12.40;99.90;;;;;;4964020;28;20058;-74
2023/05/10 01:40:13;;;;;;;10.68;5.10;;;12.40;99.90;;;;;;4965581;28;20047;-74
2023/05/10 01:42:51;;;;;;;7.47;4.80;;;12.40;99.90;;;;;;4965135;28;20105;-74
2023/05/10 01:45:30;;;;;;;8.13;4.60;;;12.50;99.90;;;;;;4963239;28;20074;-74
2023/05/10 01:48:10;;;;;;;9.65;4.90;;;12.40;99.90;;;;;;4973031;28;20050;-75
2023/05/10 01:50:43;;;;;;;15.05;5.80;;;12.40;99.90;;;;;;4983736;28;20061;-73
2023/05/10 01:53:11;;;;;;;11.35;6.07;;;12.40;99.90;;;;;;4966439;28;20069;-74
2023/05/10 01:55:46;;;;;;;9.60;5.43;;;12.40;99.90;;;;;;4982212;28;20059;-74
2023/05/10 01:58:20;;;;;;;12.30;6.72;;;12.40;99.90;;;;;;4984403;28;20042;-74
2023/05/10 02:00:47;;;;;;;13.02;6.03;;;12.40;99.90;;;;;;4983070;28;20519;-73
2023/05/10 02:03:14;;;;;;;11.88;6.00;;;12.50;99.90;;;;;;4983514;28;20054;-74
2023/05/10 02:05:44;;;;;;;11.10;6.25;;;12.50;99.90;;;;;;4982992;28;20050;-73
2023/05/10 02:08:10;;;;;;;12.52;6.32;;;12.50;99.90;;;;;;4983063;28;20056;-74
2023/05/10 02:10:39;;;;;;;14.13;7.45;;;12.50;99.90;;;;;;4977239;28;20039;-74
2023/05/10 02:13:06;;;;;;;13.55;7.47;;;12.40;99.90;;;;;;4963491;28;20074;-74
2023/05/10 02:15:33;;;;;;;15.15;7.03;;;12.40;99.90;;;;;;4946863;28;20051;-74
2023/05/10 02:18:00;;;;;;;8.52;5.32;;;12.40;99.90;;;;;;4969965;28;20042;-74
2023/05/10 02:20:26;;;;;;;11.88;5.05;;;12.40;99.90;;;;;;4981257;28;20327;-75
2023/05/10 02:22:55;;;;;;;12.52;6.22;;;12.40;99.90;;;;;;4984228;28;20053;-74
2023/05/10 02:25:23;;;;;;;11.07;5.90;;;12.40;99.90;;;;;;4984105;28;20053;-74
2023/05/10 02:27:50;;;;;;;8.63;5.80;;;12.40;99.90;;;;;;4981589;28;20105;-74
2023/05/10 02:30:17;;;;;;;9.70;4.72;;;12.40;99.90;;;;;;4981138;28;20844;-74
2023/05/10 02:32:44;;;;;;;9.70;5.18;;;12.40;99.90;;;;;;4981423;28;20050;-74
2023/05/10 02:35:11;;;;;;;6.05;3.63;;;12.40;99.90;;;;;;4982417;28;20089;-74
2023/05/10 02:37:38;;;;;;;4.03;2.50;;;12.40;99.90;;;;;;4982946;28;20041;-74
2023/05/10 02:40:06;;;;;;;6.68;2.72;;;12.40;99.90;;;;;;4983381;28;20077;-74
2023/05/10 02:42:34;;;;;;;4.00;1.98;;;12.40;99.90;;;;;;4981169;28;20046;-74
2023/05/10 02:45:02;;;;;;;2.47;1.95;;;12.50;99.90;;;;;;4982986;28;20038;-74
2023/05/10 02:47:28;;;;;;;1.92;1.52;;;12.40;99.90;;;;;;4982901;28;20081;-74
2023/05/10 02:49:55;;;;;;;2.15;1.33;;;12.40;99.90;;;;;;4981804;28;20045;-74
2023/05/10 02:52:27;;;;;;;1.20;1.10;;;12.40;99.90;;;;;;4983462;28;20049;-74
2023/05/10 02:54:56;;;;;;;2.00;1.67;;;12.40;99.90;;;;;;4982043;28;20081;-74
2023/05/10 02:57:33;;;;;;;0.75;0.75;;;12.40;99.90;;;;;;4982001;28;20532;-74
2023/05/10 03:00:00;;;;;;;1.38;1.27;;;12.30;99.90;;;;;;4983191;28;20049;-74
2023/05/10 03:02:26;;;;;;;1.55;1.10;;;12.40;99.90;;;;;;4981045;28;20046;-76
2023/05/10 03:04:51;;;;;;;1.25;0.98;;;12.30;99.90;;;;;;4982554;28;20117;-74
2023/05/10 03:07:20;;;;;;;1.13;0.68;;;12.30;99.90;;;;;;4982019;28;20146;-74
2023/05/10 03:09:47;;;;;;;1.02;0.68;;;12.40;99.90;;;;;;4981970;28;20278;-74
2023/05/10 03:12:42;;;;;;;0.98;0.70;;;12.30;99.90;;;;;;4962826;28;20090;-74
2023/05/10 03:15:13;;;;;;;0.95;0.63;;;12.30;99.90;;;;;;4945839;28;20047;-75
2023/05/10 03:18:09;;;;;;;0.73;0.60;;;12.30;99.90;;;;;;4962239;28;20050;-74
2023/05/10 03:20:48;;;;;;;0.52;0.52;;;12.30;99.90;;;;;;4981343;28;20057;-75
2023/05/10 03:23:19;;;;;;;0.88;0.68;;;12.30;99.90;;;;;;4980861;28;20133;-74
2023/05/10 03:25:48;;;;;;;0.45;0.45;;;12.20;99.90;;;;;;4980732;28;20660;-74
2023/05/10 03:28:15;;;;;;;0.60;0.60;;;12.20;99.90;;;;;;4982767;28;20053;-74
2023/05/10 03:30:42;;;;;;;1.15;0.80;;;12.30;99.90;;;;;;4980977;28;20050;-74
2023/05/10 03:33:08;;;;;;;0.75;0.75;;;12.30;99.90;;;;;;4981895;28;20644;-75
2023/05/10 03:35:34;;;;;;;0.60;0.60;;;12.20;99.90;;;;;;4981516;28;20053;-74
2023/05/10 03:38:00;;;;;;;0.88;0.85;;;12.20;99.90;;;;;;4982288;28;20649;-74
2023/05/10 03:40:28;;;;;;;0.90;0.80;;;12.20;99.90;;;;;;4981837;28;20080;-76
2023/05/10 03:42:54;;;;;;;0.80;0.50;;;12.20;99.90;;;;;;4984990;28;20081;-74
2023/05/10 03:45:20;;;;;;;0.73;0.70;;;12.20;99.90;;;;;;4986773;28;20046;-74
2023/05/10 03:47:45;;;;;;;1.08;0.80;;;12.20;99.90;;;;;;4984433;28;20187;-74
2023/05/10 03:50:11;;;;;;;0.88;0.60;;;12.20;99.90;;;;;;4985368;28;20038;-74
2023/05/10 03:52:38;;;;;;;0.57;0.43;;;12.20;99.90;;;;;;4986387;28;20453;-74
2023/05/10 03:55:05;;;;;;;0.30;0.30;;;12.20;99.90;;;;;;4983944;28;20125;-75
2023/05/10 03:57:30;;;;;;;0.82;0.60;;;12.20;99.90;;;;;;4985406;28;20428;-74
2023/05/10 03:59:56;;;;;;;0.85;0.63;;;12.20;99.90;;;;;;4984766;28;20043;-75
2023/05/10 04:02:22;;;;;;;0.40;0.38;;;12.20;99.90;;;;;;4986591;28;20489;-74
2023/05/10 04:04:48;;;;;;;1.05;0.50;;;12.20;99.90;;;;;;4984310;28;20092;-74
2023/05/10 04:07:14;;;;;;;0.65;0.45;;;12.20;99.90;;;;;;4985859;28;20194;-74
2023/05/10 04:09:39;;;;;;;1.85;0.52;;;12.20;99.90;;;;;;4985526;28;20205;-74
2023/05/10 04:12:05;;;;;;;0.98;0.70;;;12.20;99.90;;;;;;4968120;28;20038;-74
2023/05/10 04:14:31;;;;;;;0.47;0.47;;;12.20;99.90;;;;;;4984633;28;20049;-74
2023/05/10 04:16:56;;;;;;;0.60;0.40;;;12.10;99.90;;;;;;4984224;28;20042;-75
2023/05/10 04:19:22;;;;;;;0.50;0.43;;;12.10;99.90;;;;;;4984536;28;20192;-75
2023/05/10 04:21:48;;;;;;;0.68;0.50;;;12.10;99.90;;;;;;4983212;28;20057;-75
2023/05/10 04:24:13;;;;;;;0.70;0.70;;;12.10;99.90;;;;;;4984500;28;20042;-74
2023/05/10 04:26:39;;;;;;;0.75;0.70;;;12.10;99.90;;;;;;4984706;28;20383;-74
2023/05/10 04:29:04;;;;;;;0.43;0.43;;;12.10;99.90;;;;;;4985355;28;20057;-74
2023/05/10 04:31:30;;;;;;;0.63;0.50;;;12.10;99.90;;;;;;4983561;28;20048;-75
2023/05/10 04:33:56;;;;;;;0.70;0.52;;;12.10;99.90;;;;;;4983555;28;20037;-76
2023/05/10 04:36:21;;;;;;;0.60;0.35;;;12.10;99.90;;;;;;4984571;28;20053;-74
2023/05/10 04:38:47;;;;;;;0.68;0.50;;;12.10;99.90;;;;;;4983913;28;20084;-74
2023/05/10 04:41:12;;;;;;;0.60;0.47;;;12.10;99.90;;;;;;4983270;28;20185;-74
2023/05/10 04:43:38;;;;;;;0.55;0.50;;;12.00;99.90;;;;;;4985589;28;20049;-74
2023/05/10 04:46:05;;;;;;;1.02;0.68;;;12.00;99.90;;;;;;4984884;28;20038;-74
2023/05/10 04:48:30;;;;;;;0.70;0.60;;;12.00;99.90;;;;;;4983609;28;20051;-74
2023/05/10 04:50:56;;;;;;;1.05;0.77;;;12.00;99.90;;;;;;4967057;28;20401;-75
2023/05/10 04:53:22;;;;;;;2.80;1.30;;;12.00;99.90;;;;;;4984095;28;20061;-74
2023/05/10 04:55:48;;;;;;;1.75;1.52;;;12.00;99.90;;;;;;4985127;28;20046;-74
2023/05/10 04:58:14;;;;;;;2.40;1.48;;;12.00;99.90;;;;;;4984486;28;20315;-74
2023/05/10 05:00:39;;;;;;;1.80;1.60;;;12.00;99.90;;;;;;4984862;28;20044;-74
2023/05/10 05:03:05;;;;;;;2.83;1.60;;;12.00;99.90;;;;;;4966852;28;20042;-74
2023/05/10 05:05:31;;;;;;;1.65;1.35;;;12.00;99.90;;;;;;4983938;28;20105;-74
2023/05/10 05:07:57;;;;;;;3.65;2.05;;;12.00;99.90;;;;;;4984365;28;20138;-75
2023/05/10 05:10:22;;;;;;;2.67;1.80;;;12.00;99.90;;;;;;4979391;28;20113;-74
2023/05/10 05:12:48;;;;;;;3.25;1.92;;;12.00;99.90;;;;;;4964827;28;20422;-74
2023/05/10 05:15:15;;;;;;;6.43;2.30;;;12.00;99.90;;;;;;4965005;28;20074;-74
2023/05/10 05:17:40;;;;;;;2.95;1.75;;;12.00;99.90;;;;;;4980632;28;20050;-73
2023/05/10 05:20:07;;;;;;;1.65;1.15;;;12.00;99.90;;;;;;4983617;28;20050;-75
2023/05/10 05:22:32;;;;;;;2.88;1.63;;;12.00;99.90;;;;;;4984551;28;20053;-74
2023/05/10 05:24:58;;;;;;;2.63;1.60;;;12.00;99.90;;;;;;4966254;28;20050;-74
2023/05/10 05:27:25;;;;;;;3.13;1.70;;;12.00;99.90;;;;;;4985238;28;20057;-74
2023/05/10 05:29:55;;;;;;;2.97;2.08;;;11.90;99.90;;;;;;4984532;28;20504;-74
2023/05/10 05:32:21;;;;;;;3.08;1.88;;;12.00;99.90;;;;;;4982733;28;20231;-74
2023/05/10 05:34:47;;;;;;;2.10;1.65;;;12.00;99.90;;;;;;4973548;28;20126;-75
2023/05/10 05:37:18;;;;;;;2.95;1.77;;;12.00;99.90;;;;;;4979595;28;20039;-74
2023/05/10 05:39:44;;;;;;;1.80;1.13;;;12.00;99.90;;;;;;4975959;28;20569;-75
2023/05/10 05:42:10;;;;;;;3.13;1.75;;;12.00;99.90;;;;;;4965830;28;20042;-75
2023/05/10 05:44:36;;;;;;;2.47;1.65;;;12.10;99.90;;;;;;4984024;28;20038;-76
2023/05/10 05:47:01;;;;;;;2.03;1.10;;;12.10;99.90;;;;;;4979656;28;20132;-75
2023/05/10 05:49:27;;;;;;;2.15;1.23;;;12.10;99.90;;;;;;4980757;28;20531;-75
2023/05/10 05:51:52;;;;;;;1.92;1.10;;;12.10;99.90;;;;;;4984137;28;20109;-74
2023/05/10 05:54:18;;;;;;;1.90;0.95;;;12.10;99.90;;;;;;4982030;28;20065;-75
2023/05/10 05:56:44;;;;;;;1.52;0.88;;;12.00;99.90;;;;;;4974417;28;20090;-75
2023/05/10 05:59:10;;;;;;;1.48;0.82;;;12.00;99.90;;;;;;4982324;28;20046;-75
2023/05/10 06:01:35;;;;;;;1.05;0.88;;;12.10;99.90;;;;;;4981729;28;20042;-75
2023/05/10 06:04:01;;;;;;;0.88;0.85;;;12.10;99.90;;;;;;4977491;28;20046;-76
2023/05/10 06:06:27;;;;;;;0.63;0.60;;;12.10;99.90;;;;;;4982444;28;20416;-77
2023/05/10 06:08:53;;;;;;;1.20;0.70;;;12.10;99.90;;;;;;4982183;28;20528;-77
2023/05/10 06:11:18;;;;;;;0.82;0.50;;;12.10;99.90;;;;;;4979232;28;20049;-74
2023/05/10 06:13:44;;;;;;;0.85;0.85;;;12.20;99.90;;;;;;4979960;28;20061;-75
2023/05/10 06:16:10;;;;;;;1.90;0.95;;;12.20;99.90;;;;;;4981199;28;20046;-75
2023/05/10 06:18:35;;;;;;;1.85;1.40;;;12.20;99.90;;;;;;4967208;28;20074;-74
2023/05/10 06:21:01;;;;;;;2.75;1.02;;;12.20;99.90;;;;;;4973327;28;20045;-75
2023/05/10 06:23:27;;;;;;;1.60;1.20;;;12.20;99.90;;;;;;4989479;28;20425;-74
2023/05/10 06:25:52;;;;;;;3.97;1.83;;;12.20;99.90;;;;;;4981376;28;20100;-73
2023/05/10 06:28:18;;;;;;;1.52;1.05;;;12.10;99.90;;;;;;4983694;28;20031;-74
2023/05/10 06:30:44;;;;;;;1.33;0.93;;;12.10;99.90;;;;;;4981790;28;20579;-75
2023/05/10 06:33:09;;;;;;;3.13;1.23;;;12.10;99.90;;;;;;4982734;28;20409;-74
2023/05/10 06:35:36;;;;;;;4.25;1.85;;;12.10;99.90;;;;;;4980770;28;20050;-75
2023/05/10 06:38:02;;;;;;;2.35;1.27;;;12.20;99.90;;;;;;4983294;28;20189;-76
2023/05/10 06:40:28;;;;;;;2.03;1.17;;;12.20;99.90;;;;;;4981050;28;20536;-75
2023/05/10 06:42:53;;;;;;;1.85;0.93;;;12.20;99.90;;;;;;4982218;28;20172;-76
2023/05/10 06:45:19;;;;;;;2.70;1.10;;;12.20;99.90;;;;;;4978367;28;20047;-74
2023/05/10 06:47:45;;;;;;;3.22;1.42;;;12.20;99.90;;;;;;4980036;28;20038;-75
2023/05/10 06:50:11;;;;;;;1.98;1.08;;;12.20;99.90;;;;;;4981012;28;20034;-74
2023/05/10 06:52:37;;;;;;;2.60;1.25;;;12.30;99.90;;;;;;4970962;28;20047;-75
2023/05/10 06:55:06;;;;;;;2.85;1.95;;;12.30;99.90;;;;;;4981827;28;20065;-75
2023/05/10 06:57:32;;;;;;;3.50;1.33;;;12.30;99.90;;;;;;4971694;28;20034;-76
2023/05/10 07:00:03;;;;;;;3.90;1.65;;;12.30;99.90;;;;;;4982293;28;20507;-79
2023/05/10 07:02:29;;;;;;;4.18;1.92;;;12.30;99.90;;;;;;4968024;28;20052;-74
2023/05/10 07:04:55;;;;;;;3.15;1.58;;;12.30;99.90;;;;;;4982741;28;20034;-76
2023/05/10 07:07:20;;;;;;;2.50;1.42;;;12.30;99.90;;;;;;4981757;28;20046;-75
2023/05/10 07:09:46;;;;;;;3.85;1.60;;;12.30;99.90;;;;;;4979883;28;20236;-76
2023/05/10 07:12:12;;;;;;;2.78;1.88;;;12.30;99.90;;;;;;4946018;28;20054;-75
2023/05/10 07:14:37;;;;;;;3.63;2.05;;;12.30;99.90;;;;;;4962343;28;20524;-76
2023/05/10 07:17:03;;;;;;;2.75;1.27;;;12.30;99.90;;;;;;4961302;28;20405;-75
2023/05/10 07:19:29;;;;;;;3.78;1.30;;;12.30;99.90;;;;;;4961011;28;20043;-76
2023/05/10 07:21:55;;;;;;;2.35;1.65;;;12.30;99.90;;;;;;4962321;28;20070;-75
2023/05/10 07:24:21;;;;;;;3.30;1.90;;;12.30;99.90;;;;;;4963285;28;20401;-75
2023/05/10 07:26:46;;;;;;;3.35;1.38;;;12.40;99.90;;;;;;4962515;28;20339;-76
2023/05/10 07:29:12;;;;;;;2.40;1.85;;;12.40;99.90;;;;;;4962957;28;20043;-75
2023/05/10 07:31:37;;;;;;;2.25;1.50;;;12.40;99.90;;;;;;4961904;28;20045;-76
2023/05/10 07:34:03;;;;;;;2.65;1.70;;;12.40;99.90;;;;;;4961473;28;20073;-76
2023/05/10 07:36:29;;;;;;;5.20;1.90;;;12.40;99.90;;;;;;4962000;28;20109;-76
2023/05/10 07:38:54;;;;;;;2.65;1.60;;;12.40;99.90;;;;;;4962417;28;20046;-76
2023/05/10 07:41:20;;;;;;;2.88;2.15;;;12.40;99.90;;;;;;4962296;28;20046;-75
2023/05/10 07:43:46;;;;;;;4.05;1.77;;;12.50;99.90;;;;;;4962819;28;20416;-75
2023/05/10 07:46:12;;;;;;;3.78;2.20;;;12.50;99.90;;;;;;4962411;28;20039;-75
2023/05/10 07:48:37;;;;;;;2.75;1.65;;;12.50;99.90;;;;;;4962496;28;20513;-75
2023/05/10 07:51:03;;;;;;;5.80;1.98;;;12.60;99.90;;;;;;4960716;28;20046;-76
2023/05/10 07:53:28;;;;;;;5.10;2.15;;;12.60;99.90;;;;;;4962614;28;20102;-76
2023/05/10 07:55:57;;;;;;;4.07;1.75;;;12.70;99.90;;;;;;4945808;28;20047;-76
2023/05/10 07:58:23;;;;;;;6.38;2.45;;;12.70;99.90;;;;;;4962486;28;20050;-76
2023/05/10 08:00:49;;;;;;;5.68;1.92;;;12.70;99.90;;;;;;4962675;28;20049;-75
2023/05/10 08:03:15;;;;;;;8.07;2.10;;;12.80;99.90;;;;;;4960773;28;20050;-75
2023/05/10 08:05:41;;;;;;;4.05;2.22;;;12.80;99.90;;;;;;4961610;28;20514;-75
2023/05/10 08:08:06;;;;;;;3.92;1.73;;;12.90;99.90;;;;;;4961252;28;20046;-76
2023/05/10 08:10:32;;;;;;;5.95;2.28;;;12.90;99.90;;;;;;4965930;28;20571;-75
2023/05/10 08:12:58;;;;;;;4.72;1.60;;;12.90;99.90;;;;;;4980676;28;20086;-75
2023/05/10 08:15:25;;;;;;;2.95;1.45;;;12.90;99.90;;;;;;4982255;28;20053;-75
2023/05/10 08:17:51;;;;;;;4.25;2.25;;;12.90;99.90;;;;;;4980476;28;20039;-75
2023/05/10 08:20:18;;;;;;;5.28;2.25;;;12.90;99.90;;;;;;4980666;28;20414;-75
2023/05/10 08:22:45;;;;;;;5.03;2.70;;;12.90;99.90;;;;;;4981659;28;20054;-76
2023/05/10 08:25:10;;;;;;;4.30;2.20;;;12.90;99.90;;;;;;4981695;28;20046;-75
2023/05/10 08:27:36;;;;;;;4.97;2.22;;;13.00;99.90;;;;;;4980303;28;20100;-76
2023/05/10 08:30:01;;;;;;;7.38;2.65;;;13.00;99.90;;;;;;4984025;28;20049;-75
2023/05/10 08:32:27;;;;;;;5.25;2.28;;;13.00;99.90;;;;;;4983012;28;20422;-77
2023/05/10 08:34:53;;;;;;;2.83;1.67;;;13.00;99.90;;;;;;4985165;28;20121;-75
2023/05/10 08:37:18;;;;;;;2.75;1.63;;;13.00;99.90;;;;;;4985031;28;20038;-76
2023/05/10 08:39:45;;;;;;;4.78;2.00;;;13.00;99.90;;;;;;4983489;28;20452;-76
2023/05/10 08:42:12;;;;;;;8.98;2.95;;;13.00;99.90;;;;;;4983059;28;20207;-76
2023/05/10 08:44:38;;;;;;;6.22;2.40;;;13.00;99.90;;;;;;4984251;28;20444;-75
2023/05/10 08:47:06;;;;;;;4.47;2.42;;;13.10;99.90;;;;;;4984373;28;20108;-76
2023/05/10 08:49:33;;;;;;;3.80;2.22;;;13.10;99.90;;;;;;4966218;28;20050;-76
2023/05/10 08:52:02;;;;;;;7.55;2.70;;;13.10;99.90;;;;;;4985069;28;20089;-76
2023/05/10 08:54:28;;;;;;;4.72;2.28;;;13.10;99.90;;;;;;4983529;28;20042;-76
2023/05/10 08:56:54;;;;;;;7.60;2.95;;;13.20;99.90;;;;;;4984255;28;20186;-76
2023/05/10 08:59:19;;;;;;;4.72;2.97;;;13.20;99.90;;;;;;4984819;28;20050;-76
2023/05/10 09:01:49;;;;;;;4.90;3.20;;;13.20;99.90;;;;;;4983765;28;20058;-75
2023/05/10 09:04:14;;;;;;;5.35;3.20;;;13.20;99.90;;;;;;4983815;28;20038;-76
2023/05/10 09:06:40;;;;;;;6.35;2.90;;;13.30;99.90;;;;;;4984120;28;20061;-76
2023/05/10 09:09:06;;;;;;;5.75;2.60;;;13.30;99.90;;;;;;4984335;28;20042;-76
2023/05/10 09:11:32;;;;;;;9.13;3.30;;;13.30;99.90;;;;;;4969171;28;20050;-76
2023/05/10 09:13:58;;;;;;;6.25;2.88;;;13.40;99.90;;;;;;4965036;28;20126;-76
2023/05/10 09:16:23;;;;;;;5.75;2.75;;;13.40;99.90;;;;;;4963804;28;20521;-76
2023/05/10 09:18:49;;;;;;;5.40;2.78;;;13.30;99.90;;;;;;4962162;28;20242;-76
2023/05/10 09:21:15;;;;;;;4.85;2.63;;;13.40;99.90;;;;;;4964728;28;20043;-76
2023/05/10 09:23:46;;;;;;;6.88;2.88;;;13.40;99.90;;;;;;4963908;28;20047;-76
2023/05/10 09:26:12;;;;;;;6.35;2.55;;;13.40;99.90;;;;;;4964614;28;20178;-76
2023/05/10 09:29:10;;;;;;;3.63;2.70;;;13.40;99.90;;;;;;4964641;28;20137;-76
2023/05/10 09:31:46;;;;;;;6.43;2.65;;;13.40;99.90;;;;;;4941772;28;20468;-76
2023/05/10 09:34:17;;;;;;;6.18;2.55;;;13.40;99.90;;;;;;4964306;28;20044;-76
2023/05/10 09:37:03;;;;;;;5.57;2.13;;;13.50;99.90;;;;;;4984587;28;20106;-76
2023/05/10 09:39:37;;;;;;;4.97;2.30;;;13.50;99.90;;;;;;4973592;28;20042;-76
2023/05/10 09:42:05;;;;;;;6.22;2.78;;;13.50;99.90;;;;;;4981966;28;20045;-75
2023/05/10 09:44:32;;;;;;;4.22;2.17;;;13.50;99.90;;;;;;4965168;28;20038;-76
2023/05/10 09:46:58;;;;;;;5.28;3.10;;;13.50;99.90;;;;;;4981121;28;21029;-76
2023/05/10 09:49:24;;;;;;;4.65;2.70;;;13.50;99.90;;;;;;4981461;28;20381;-76
2023/05/10 09:52:07;;;;;;;6.32;2.35;;;13.60;99.90;;;;;;4987178;28;20042;-76
2023/05/10 09:54:33;;;;;;;5.18;3.90;;;13.60;99.90;;;;;;4986991;28;20119;-75
2023/05/10 09:57:00;;;;;;;6.68;2.70;;;13.60;99.90;;;;;;4975164;28;20461;-76
2023/05/10 09:59:27;;;;;;;5.30;2.58;;;13.70;99.90;;;;;;4965037;28;20057;-77
2023/05/10 10:02:00;;;;;;;9.50;2.75;;;13.70;99.90;;;;;;4976656;28;20053;-75
2023/05/10 10:04:26;;;;;;;4.25;2.47;;;13.60;99.90;;;;;;4981067;28;20534;-78
2023/05/10 10:07:00;;;;;;;5.78;3.03;;;13.70;99.90;;;;;;4989982;28;20061;-76
2023/05/10 10:09:26;;;;;;;8.25;2.85;;;13.70;99.90;;;;;;4987070;28;20064;-77
2023/05/10 10:11:53;;;;;;;5.53;2.83;;;13.70;99.90;;;;;;4983006;28;20034;-76
2023/05/10 10:14:20;;;;;;;5.13;2.80;;;13.70;99.90;;;;;;4982087;28;20255;-76
2023/05/10 10:16:46;;;;;;;5.30;3.05;;;13.80;99.90;;;;;;4981605;28;20047;-76
2023/05/10 10:19:12;;;;;;;6.13;3.05;;;13.80;99.90;;;;;;4982392;28;20043;-76
2023/05/10 10:21:37;;;;;;;8.98;3.10;;;13.80;99.90;;;;;;4981652;28;20085;-75
2023/05/10 10:24:05;;;;;;;9.55;3.03;;;13.80;99.90;;;;;;4982786;28;20105;-76
2023/05/10 10:26:33;;;;;;;6.07;3.47;;;13.90;99.90;;;;;;4981625;28;20073;-76
2023/05/10 10:29:07;;;;;;;5.72;3.13;;;14.00;99.90;;;;;;4981990;28;20176;-76
2023/05/10 10:31:45;;;;;;;6.97;2.92;;;14.00;99.90;;;;;;4981271;28;20042;-74
2023/05/10 10:34:26;;;;;;;6.65;2.92;;;14.00;99.90;;;;;;4979002;28;20038;-76
2023/05/10 10:36:52;;;;;;;8.68;3.08;;;14.10;99.90;;;;;;4983271;28;20046;-75
2023/05/10 10:39:19;;;;;;;5.55;2.83;;;14.10;99.90;;;;;;4983290;28;20049;-75
2023/05/10 10:41:54;;;;;;;6.97;2.63;;;14.20;99.90;;;;;;4981073;28;20729;-75
2023/05/10 10:44:25;;;;;;;5.82;3.35;;;14.20;99.90;;;;;;4990954;28;20081;-76
2023/05/10 10:47:22;;;;;;;8.23;3.78;;;14.30;99.90;;;;;;4981119;28;20050;-76
2023/05/10 10:50:12;;;;;;;7.20;3.45;;;14.30;99.90;;;;;;4978323;28;20050;-76
2023/05/10 10:52:45;;;;;;;15.18;2.83;;;14.40;99.90;;;;;;4969108;28;20125;-76
2023/05/10 10:55:17;;;;;;;7.15;3.90;;;14.40;99.90;;;;;;4981383;28;20119;-76
2023/05/10 10:58:00;;;;;;;6.25;3.58;;;14.40;99.90;;;;;;4980998;28;20319;-75
2023/05/10 11:00:36;;;;;;;6.68;3.33;;;14.50;99.90;;;;;;4982283;28;20077;-77
2023/05/10 11:03:13;;;;;;;4.70;3.05;;;14.50;99.90;;;;;;4978589;28;20054;-76
2023/05/10 11:05:43;;;;;;;4.72;2.78;;;14.50;99.90;;;;;;4962444;28;20336;-76
2023/05/10 11:08:34;;;;;;;3.83;2.25;;;14.50;99.90;;;;;;4971554;28;20561;-76
2023/05/10 11:10:59;;;;;;;8.73;3.30;;;14.40;99.90;;;;;;4973248;28;20043;-76
2023/05/10 11:13:43;;;;;;;7.78;3.10;;;14.50;99.90;;;;;;4973924;28;20053;-76
2023/05/10 11:16:15;;;;;;;4.22;2.17;;;14.50;99.90;;;;;;4981000;28;20061;-75
2023/05/10 11:18:51;;;;;;;5.63;3.38;;;14.40;99.90;;;;;;4979757;28;20381;-76
2023/05/10 11:21:16;;;;;;;7.45;3.83;;;14.50;99.90;;;;;;4980581;28;20121;-75
2023/05/10 11:23:56;;;;;;;7.93;4.03;;;14.50;99.90;;;;;;4981638;28;20054;-76
2023/05/10 11:26:29;;;;;;;7.22;2.95;;;14.50;99.90;;;;;;4962311;28;20134;-76
2023/05/10 11:28:55;;;;;;;6.40;3.17;;;14.50;99.90;;;;;;4977017;28;20043;-76
2023/05/10 11:31:21;;;;;;;5.97;2.60;;;14.60;99.90;;;;;;4980949;28;20061;-76
2023/05/10 11:33:52;;;;;;;6.40;2.75;;;14.60;99.90;;;;;;4969254;28;20061;-76
2023/05/10 11:36:19;;;;;;;7.95;3.00;;;14.60;99.90;;;;;;4963052;28;20118;-76
2023/05/10 11:38:45;;;;;;;6.45;2.95;;;14.60;99.90;;;;;;4968647;28;20039;-76
2023/05/10 11:41:12;;;;;;;4.03;2.75;;;14.60;99.90;;;;;;4980224;28;20104;-75
2023/05/10 11:43:42;;;;;;;4.80;2.40;;;14.70;99.90;;;;;;4979536;28;20042;-75
2023/05/10 11:46:12;;;;;;;6.10;2.95;;;14.70;99.90;;;;;;4980761;28;20490;-76
2023/05/10 11:48:41;;;;;;;5.53;3.30;;;14.70;99.90;;;;;;4974447;28;20069;-75
2023/05/10 11:51:08;;;;;;;4.93;2.67;;;14.80;99.90;;;;;;4981748;28;20370;-76
2023/05/10 11:53:34;;;;;;;7.60;3.17;;;14.80;99.90;;;;;;4981426;28;20043;-74
2023/05/10 11:56:10;;;;;;;6.22;3.08;;;14.90;99.90;;;;;;4981698;28;20081;-75
2023/05/10 11:58:37;;;;;;;5.47;2.22;;;15.00;99.90;;;;;;4982404;28;20093;-75
2023/05/10 12:01:04;;;;;;;6.57;3.28;;;15.10;99.90;;;;;;4982099;28;20169;-76
2023/05/10 12:03:30;;;;;;;6.47;3.60;;;15.10;99.90;;;;;;4981101;28;20038;-75
2023/05/10 12:05:56;;;;;;;8.07;3.47;;;15.10;99.90;;;;;;4985636;28;20039;-78
2023/05/10 12:08:24;;;;;;;7.32;2.88;;;15.20;99.90;;;;;;4985955;28;20050;-75
2023/05/10 12:10:50;;;;;;;6.88;3.15;;;15.20;99.90;;;;;;4975893;28;20046;-75
2023/05/10 12:13:17;;;;;;;8.70;3.65;;;15.20;99.90;;;;;;4959128;28;20136;-74
2023/05/10 12:15:43;;;;;;;8.32;3.67;;;15.20;99.90;;;;;;4984470;28;20492;-74
2023/05/10 12:18:10;;;;;;;7.63;3.83;;;15.30;99.90;;;;;;4982314;28;20038;-73
2023/05/10 12:20:36;;;;;;;8.13;3.50;;;15.30;99.90;;;;;;4984297;28;20042;-74
2023/05/10 12:23:03;;;;;;;8.85;3.55;;;15.40;99.90;;;;;;4985137;28;20342;-73
2023/05/10 12:25:33;;;;;;;4.82;2.65;;;15.40;99.90;;;;;;4966517;28;20518;-73
2023/05/10 12:28:02;;;;;;;8.45;3.55;;;15.50;99.90;;;;;;4973702;28;20538;-74
2023/05/10 12:30:29;;;;;;;6.65;3.38;;;15.50;99.90;;;;;;4976893;28;20113;-73
2023/05/10 12:33:11;;;;;;;8.27;2.85;;;15.50;99.90;;;;;;4980184;28;20050;-75
2023/05/10 12:36:03;;;;;;;6.00;2.75;;;15.50;99.90;;;;;;4982180;28;20122;-75
2023/05/10 12:38:33;;;;;;;6.93;4.07;;;15.50;99.90;;;;;;4974591;28;20058;-75
2023/05/10 12:41:01;;;;;;;8.10;3.90;;;15.60;99.90;;;;;;4983364;28;20057;-75
2023/05/10 12:43:27;;;;;;;7.82;3.63;;;15.60;99.90;;;;;;4983535;28;20050;-75
2023/05/10 12:45:52;;;;;;;5.95;2.97;;;15.70;99.90;;;;;;4985277;28;20038;-74
2023/05/10 12:48:18;;;;;;;6.30;3.15;;;15.80;99.90;;;;;;4948238;28;20498;-75
2023/05/10 12:50:44;;;;;;;6.07;2.92;;;15.80;99.90;;;;;;4973309;28;20042;-75